• Join FlightAware (Why Join?)
  • Login
  • US Flag 
06:04AM EDT


 

Airport Tracker/Info


-or-


 

Live Flight TrackerFlight Track Log ✈ UCA597 ✈ 01-Nov-2013 ✈ KIAD - KBGM

Flight Track Log - Related Links

Times and Time Zones

All times are in EDT time to prevent confusion due to time zone crossing. See the UCA597 flight status page for this flight to view local times or setup timezone preferences in your user account.

Time Position Orientation Groundspeed Altitude Reporting Facility
EDT Latitude Longitude Course Direction KTS MPH feet Rate Location/Type
05:43PM 38.9667 -77.5333 North 165 190 1,700  Level Potomac TRACON
05:44PM 39.0072 -77.5897 313° West 181 208 3,200 1,080 Climbing Washington Center
05:46PM 39.1022 -77.5443 North  Level Estimated
05:46PM 39.1242 -77.5794 North 197 227 5,500  Level Washington Center
05:47PM 39.1783 -77.5756 North 197 227 7,200 1,620 Climbing Washington Center
05:48PM 39.3265 -77.2955 North  Level Estimated
05:48PM 39.2328 -77.5636 10° North 197 227 8,800  Level Washington Center
05:49PM 39.2853 -77.5436 16° North 197 227 10,100 1,080 Climbing Washington Center
05:50PM 39.3419 -77.5236 15° North 197 227 11,000 780 Climbing Washington Center
05:51PM 39.3983 -77.5144 North 203 234 11,700 660 Climbing Washington Center
05:52PM 39.4569 -77.5000 11° North 203 234 12,400 660 Climbing Washington Center
05:53PM 39.5156 -77.4853 11° North 203 234 13,100 780 Climbing Washington Center
05:55PM 39.6406 -77.4547 11° North 225 259 14,700 840 Climbing New York Center
05:56PM 39.6969 -77.4519 North 225 259 15,500 900 Climbing New York Center
05:57PM 39.7678 -77.4533 359° North 231 266 16,500 840 Climbing New York Center
05:58PM 39.8283 -77.4508 North 236 272 17,200 960 Climbing New York Center
05:59PM 39.9014 -77.4525 359° North 236 272 18,500 900 Climbing New York Center
06:00PM 39.9661 -77.4506 North 236 272 19,000 240 Climbing New York Center
06:01PM 40.0475 -77.4475 North 259 298 19,000  Level New York Center
06:02PM 40.1183 -77.4108 22° Northeast 285 328 19,000  Level New York Center
06:03PM 40.2050 -77.3564 26° Northeast 304 350 19,000  Level New York Center
06:04PM 40.2739 -77.3167 24° Northeast 309 356 19,000  Level New York Center
06:05PM 40.3578 -77.2675 24° Northeast 303 349 19,000  Level New York Center
06:06PM 40.4289 -77.2250 24° Northeast 303 349 19,000  Level New York Center
06:07PM 40.5111 -77.1700 27° Northeast 303 349 19,000 -240 Level New York Center
06:08PM 40.5844 -77.1275 24° Northeast 308 354 18,600 -900 Descending New York Center
06:09PM 40.6664 -77.0750 26° Northeast 313 360 17,200 -840 Descending New York Center
06:10PM 40.7464 -77.0192 28° Northeast 319 367 17,000 -120 Descending New York Center
06:11PM 40.8286 -76.9611 28° Northeast 304 350 17,000  Level New York Center
06:12PM 40.8978 -76.9122 28° Northeast 298 343 17,000  Level New York Center
06:13PM 40.9628 -76.8686 27° Northeast 293 337 17,000  Level New York Center
06:14PM 41.0339 -76.8200 27° Northeast 288 331 17,000  Level New York Center
06:15PM 41.1011 -76.7708 29° Northeast 288 331 17,000  Level New York Center
06:16PM 41.1722 -76.7250 26° Northeast 282 325 17,000  Level New York Center
06:17PM 41.2478 -76.6681 30° Northeast 272 313 17,000  Level New York Center
06:18PM 41.3169 -76.6217 27° Northeast 272 313 17,000  Level New York Center
06:19PM 41.3861 -76.5694 30° Northeast 272 313 17,000  Level New York Center
06:20PM 41.4464 -76.5278 27° Northeast 272 313 17,000 -480 Level New York Center
06:21PM 41.5119 -76.4669 35° Northeast 279 321 16,100 -1,620 Descending New York Center
06:22PM 41.5903 -76.3931 35° Northeast 301 346 13,800 -2,100 Descending New York Center
06:23PM 41.6656 -76.3439 26° Northeast 301 346 11,900 -1,920 Descending New York Center
06:24PM 41.7389 -76.2917 28° Northeast 301 346 10,000 -1,980 Descending New York Center
06:25PM 41.8031 -76.2525 24° Northeast 286 329 8,000 -1,980 Descending New York Center
06:26PM 41.8697 -76.2078 27° Northeast 274 315 6,100 -1,500 Descending New York Center
06:27PM 41.9406 -76.1606 26° Northeast 268 308 5,000 -600 Descending New York Center
06:28PM 42.0006 -76.1236 25° Northeast 247 284 5,000 -300 Level New York Center
06:29PM 42.0542 -76.0861 27° Northeast 239 275 4,500 -600 Descending New York Center
06:30PM 42.1067 -76.0317 38° Northeast 239 275 3,900 -720 Descending New York Center
06:31PM 42.1492 -75.9650 49° Northeast 229 264 3,100 -600 Descending New York Center
06:32PM 42.1844 -75.9175 45° Northeast 211 243 2,800 -540 Descending New York Center
06:33PM 42.2042 -75.9414 318° Northwest 99 114 2,100 3,060 Descending New York Center
06:34PM 42.2383 -75.9244 20° North 99 114 9,000 3,420 Climbing New York Center
06:35PM 42.2639 -75.9125 19° North 99 114 9,000  Level New York Center
06:36PM 42.2914 -75.9006 18° North 99 114 9,000  Level New York Center
06:37PM 42.3169 -75.8886 19° North 99 114 9,000  Level New York Center
06:39PM 42.2334 -75.9587 North  Level Estimated
06:46PM 42.2000 -75.9667 North  Level FlightAware Approximate
06:47PM 42.2084 -75.9796 North  Level Estimated
06:48PM 42.2084 -75.9796 North  Level Estimated
06:49PM 42.2084 -75.9796 North  Level Estimated
06:50PM 42.2084 -75.9796 North  Level Estimated
06:51PM 42.2084 -75.9796 North  Level Estimated
06:52PM 42.2084 -75.9796 North  Level Estimated
06:53PM 42.2084 -75.9796 North  Level Estimated
06:54PM 42.2084 -75.9796 North  Level Estimated